createdAt,value
2018-06-25T00:03:04.090Z,1.90
2018-06-25T00:08:07.416Z,2.00
2018-06-25T00:13:10.752Z,2.20
2018-06-25T00:18:14.026Z,2.00
2018-06-25T00:23:17.686Z,2.20
2018-06-25T00:28:20.983Z,2.30
2018-06-25T00:33:24.298Z,2.20
2018-06-25T00:38:27.534Z,1.73
2018-06-25T00:43:30.846Z,1.77
2018-06-25T00:48:34.401Z,1.60
2018-06-25T00:53:38.383Z,2.10
2018-06-25T00:58:53.269Z,2.00
2018-06-25T01:03:57.789Z,1.53
2018-06-25T01:09:01.066Z,1.70
2018-06-25T01:14:04.682Z,1.97
2018-06-25T01:19:08.045Z,1.83
2018-06-25T01:24:11.309Z,1.87
2018-06-25T01:29:14.654Z,2.17
2018-06-25T01:34:18.438Z,1.73
2018-06-25T01:39:21.764Z,2.10
2018-06-25T01:44:25.114Z,1.70
2018-06-25T01:49:28.384Z,1.57
2018-06-25T01:54:31.662Z,1.90
2018-06-25T01:59:35.130Z,1.67
2018-06-25T02:04:38.605Z,1.80
2018-06-25T02:09:41.836Z,1.77
2018-06-25T02:14:45.119Z,1.80
2018-06-25T02:19:48.342Z,2.17
2018-06-25T02:24:51.634Z,1.80
2018-06-25T02:29:54.847Z,1.67
2018-06-25T02:34:58.840Z,1.63
2018-06-25T02:40:02.349Z,1.87
2018-06-25T02:45:05.966Z,1.70
2018-06-25T02:50:09.915Z,1.90
2018-06-25T02:55:13.382Z,1.60
2018-06-25T03:00:18.014Z,1.40
2018-06-25T03:05:21.336Z,1.27
2018-06-25T03:10:24.597Z,1.60
2018-06-25T03:15:27.905Z,1.80
2018-06-25T03:20:31.201Z,1.63
2018-06-25T03:25:34.487Z,1.60
2018-06-25T03:30:37.757Z,1.60
2018-06-25T03:35:41.009Z,1.57
2018-06-25T03:40:44.318Z,1.40
2018-06-25T03:45:47.578Z,1.23
2018-06-25T03:50:50.962Z,1.40
2018-06-25T03:55:54.481Z,1.40
2018-06-25T04:00:57.810Z,1.50
2018-06-25T04:06:01.029Z,1.50
2018-06-25T04:11:04.248Z,1.60
2018-06-25T04:16:07.699Z,1.30
2018-06-25T04:21:11.416Z,1.33
2018-06-25T04:26:14.631Z,1.63
2018-06-25T04:31:17.908Z,1.20
2018-06-25T04:36:21.496Z,1.57
2018-06-25T04:41:24.867Z,1.43
2018-06-25T04:46:28.244Z,1.63
2018-06-25T04:51:31.430Z,1.60
2018-06-25T04:56:35.120Z,1.30
2018-06-25T05:01:38.483Z,1.20
2018-06-25T05:06:42.078Z,1.30
2018-06-25T05:11:45.421Z,1.30
2018-06-25T05:16:49.215Z,1.10
2018-06-25T05:21:53.448Z,1.10
2018-06-25T05:26:56.871Z,1.43
2018-06-25T05:32:00.596Z,1.00
2018-06-25T05:37:03.894Z,1.13
2018-06-25T05:42:07.076Z,1.30
2018-06-25T05:47:11.576Z,1.20
2018-06-25T05:52:14.928Z,1.17
2018-06-25T05:57:19.044Z,1.00
2018-06-25T06:02:23.524Z,1.27
2018-06-25T06:07:26.892Z,1.10
2018-06-25T06:12:30.160Z,1.30
2018-06-25T06:17:33.503Z,1.63
2018-06-25T06:22:36.922Z,1.90
2018-06-25T06:27:40.499Z,2.80
2018-06-25T06:32:43.830Z,3.57
2018-06-25T06:37:47.376Z,3.20
2018-06-25T06:42:50.943Z,2.70
2018-06-25T06:47:54.222Z,2.60
2018-06-25T06:52:57.578Z,2.33
2018-06-25T06:58:00.898Z,3.10
2018-06-25T07:03:04.259Z,1.90
2018-06-25T07:08:07.615Z,2.10
2018-06-25T07:13:11.244Z,2.23
2018-06-25T07:18:14.524Z,2.33
2018-06-25T07:23:17.834Z,1.73
2018-06-25T07:28:21.156Z,1.77
2018-06-25T07:33:24.545Z,2.20
2018-06-25T07:38:28.598Z,2.10
2018-06-25T07:43:32.138Z,2.07
2018-06-25T07:48:35.390Z,2.10
2018-06-25T07:53:38.797Z,2.13
2018-06-25T07:58:41.966Z,2.37
2018-06-25T08:03:45.518Z,2.10
2018-06-25T08:08:48.680Z,1.80
2018-06-25T08:13:52.476Z,2.70
2018-06-25T08:18:56.058Z,2.40
2018-06-25T08:23:59.446Z,2.07
2018-06-25T08:29:03.139Z,2.50
2018-06-25T08:34:07.291Z,2.20
2018-06-25T08:39:12.140Z,2.17
2018-06-25T08:44:15.507Z,3.00
2018-06-25T08:49:19.025Z,2.80
2018-06-25T08:54:22.289Z,3.50
2018-06-25T08:59:25.601Z,3.30
2018-06-25T09:04:31.365Z,3.17
2018-06-25T09:09:34.703Z,3.10
2018-06-25T09:14:38.055Z,2.50
2018-06-25T09:19:41.627Z,2.40
2018-06-25T09:24:45.401Z,2.80
2018-06-25T09:29:48.634Z,2.20
2018-06-25T09:34:51.804Z,2.60
2018-06-25T09:39:55.159Z,2.37
2018-06-25T09:44:59.926Z,2.73
2018-06-25T09:50:03.451Z,2.17
2018-06-25T09:55:06.705Z,2.57
2018-06-25T10:00:09.917Z,3.13
2018-06-25T10:05:13.143Z,2.37
2018-06-25T10:10:16.436Z,2.33
2018-06-25T10:15:20.000Z,3.30
2018-06-25T10:20:23.925Z,2.37
2018-06-25T10:25:26.878Z,2.23
2018-06-25T10:30:30.099Z,2.40
2018-06-25T10:35:33.838Z,2.17
2018-06-25T10:40:37.276Z,2.50
2018-06-25T10:45:40.867Z,2.60
2018-06-25T10:50:44.165Z,2.30
2018-06-25T10:55:47.350Z,2.70
2018-06-25T11:00:50.732Z,2.47
2018-06-25T11:05:54.181Z,2.10
2018-06-25T11:10:57.559Z,2.33
2018-06-25T11:16:00.854Z,2.67
2018-06-25T11:21:04.070Z,2.90
2018-06-25T11:26:07.358Z,3.07
2018-06-25T11:31:10.646Z,3.43
2018-06-25T11:36:23.342Z,2.40
2018-06-25T11:41:26.553Z,2.97
2018-06-25T11:46:29.530Z,2.30
2018-06-25T11:51:32.734Z,2.27
2018-06-25T11:56:36.147Z,2.43
2018-06-25T12:01:39.561Z,2.83
2018-06-25T12:06:42.840Z,2.30
2018-06-25T12:11:46.325Z,2.17
2018-06-25T12:16:50.756Z,2.47
2018-06-25T12:21:53.986Z,2.30
2018-06-25T12:26:57.558Z,2.10
2018-06-25T12:32:00.828Z,2.13
2018-06-25T12:37:04.037Z,2.00
2018-06-25T12:42:07.214Z,2.07
2018-06-25T12:47:10.426Z,2.37
2018-06-25T12:52:13.678Z,2.23
2018-06-25T12:57:16.918Z,2.30
2018-06-25T13:02:20.319Z,2.20
2018-06-25T13:07:23.710Z,1.90
2018-06-25T13:12:26.924Z,2.00
2018-06-25T13:17:30.172Z,2.00
2018-06-25T13:22:33.364Z,1.73
2018-06-25T13:27:37.019Z,1.80
2018-06-25T13:32:40.413Z,1.60
2018-06-25T13:37:43.856Z,2.37
2018-06-25T13:42:47.321Z,1.60
2018-06-25T13:47:50.731Z,1.77
2018-06-25T13:52:53.974Z,1.67
2018-06-25T13:57:57.809Z,1.60
2018-06-25T14:03:00.987Z,1.87
2018-06-25T14:08:04.256Z,1.50
2018-06-25T14:13:07.565Z,1.50
2018-06-25T14:18:11.054Z,1.37
2018-06-25T14:23:14.298Z,1.57
2018-06-25T14:28:23.437Z,1.63
2018-06-25T14:33:32.250Z,1.60
2018-06-25T14:38:35.712Z,1.60
2018-06-25T14:43:39.354Z,1.33
2018-06-25T14:48:42.809Z,1.40
2018-06-25T14:53:46.150Z,1.60
2018-06-25T14:58:49.518Z,1.40
2018-06-25T15:03:54.071Z,1.30
2018-06-25T15:08:57.982Z,1.70
2018-06-25T15:14:01.287Z,1.40
2018-06-25T15:19:04.768Z,1.30
2018-06-25T15:24:09.004Z,1.30
2018-06-25T15:29:12.594Z,1.40
2018-06-25T15:34:16.356Z,1.20
2018-06-25T15:39:19.690Z,1.10
2018-06-25T15:44:23.506Z,1.37
2018-06-25T15:49:26.835Z,1.10
2018-06-25T15:54:30.198Z,1.10
2018-06-25T15:59:33.551Z,1.40
2018-06-25T16:04:37.075Z,1.63
2018-06-25T16:09:40.723Z,1.33
2018-06-25T16:14:44.933Z,1.63
2018-06-25T16:19:48.157Z,1.70
2018-06-25T16:24:51.519Z,1.40
2018-06-25T16:29:55.128Z,1.40
2018-06-25T16:34:58.436Z,1.40
2018-06-25T16:40:02.078Z,1.47
2018-06-25T16:45:06.877Z,1.10
2018-06-25T16:50:10.138Z,1.60
2018-06-25T16:55:13.600Z,1.30
2018-06-25T17:00:16.998Z,1.10
2018-06-25T17:05:20.341Z,1.53
2018-06-25T17:10:23.780Z,1.27
2018-06-25T17:15:27.295Z,1.10
2018-06-25T17:20:31.744Z,1.20
2018-06-25T17:25:35.747Z,1.23
2018-06-25T17:30:39.204Z,1.40
2018-06-25T17:35:42.446Z,1.63
2018-06-25T17:40:45.722Z,2.43
2018-06-25T17:45:49.093Z,2.80
2018-06-25T17:50:52.425Z,3.30
2018-06-25T17:55:56.128Z,2.87
2018-06-25T18:01:00.483Z,4.37
2018-06-25T18:06:03.872Z,3.80
2018-06-25T18:11:07.245Z,4.60
2018-06-25T18:16:10.745Z,4.30
2018-06-25T18:21:14.120Z,4.50
2018-06-25T18:26:18.151Z,4.57
2018-06-25T18:31:21.475Z,4.90
2018-06-25T18:36:25.422Z,4.70
2018-06-25T18:41:28.707Z,5.70
2018-06-25T18:46:32.027Z,5.87
2018-06-25T18:51:35.427Z,5.40
2018-06-25T18:56:39.038Z,5.40
2018-06-25T19:01:42.497Z,4.77
2018-06-25T19:06:45.828Z,5.87
2018-06-25T19:11:49.732Z,4.60
2018-06-25T19:16:53.011Z,5.67
2018-06-25T19:21:56.669Z,5.27
2018-06-25T19:26:59.952Z,6.60
2018-06-25T19:32:03.337Z,5.30
2018-06-25T19:37:07.028Z,5.23
2018-06-25T19:42:10.764Z,5.27
2018-06-25T19:47:14.609Z,4.83
2018-06-25T19:52:18.052Z,5.27
2018-06-25T19:57:23.361Z,4.57
2018-06-25T20:02:26.663Z,4.10
2018-06-25T20:07:30.600Z,4.90
2018-06-25T20:12:33.873Z,3.60
2018-06-25T20:17:37.202Z,3.87
2018-06-25T20:22:40.575Z,4.40
2018-06-25T20:27:44.198Z,4.03
2018-06-25T20:32:47.614Z,3.73
2018-06-25T20:37:50.935Z,3.30
2018-06-25T20:42:54.316Z,3.50
2018-06-25T20:48:00.560Z,4.30
2018-06-25T20:53:05.067Z,3.87
2018-06-25T20:58:08.640Z,3.70
2018-06-25T21:03:14.317Z,3.07
2018-06-25T21:08:17.859Z,2.80
2018-06-25T21:13:21.167Z,2.70
2018-06-25T21:18:24.777Z,2.80
2018-06-25T21:23:28.098Z,3.20
2018-06-25T21:28:31.383Z,2.60
2018-06-25T21:33:34.779Z,2.30
2018-06-25T21:38:38.089Z,2.43
2018-06-25T21:43:41.945Z,2.60
2018-06-25T21:48:45.433Z,2.20
2018-06-25T21:53:48.767Z,2.63
2018-06-25T21:58:52.321Z,1.80
2018-06-25T22:03:56.040Z,2.10
2018-06-25T22:09:00.141Z,1.83
2018-06-25T22:14:04.226Z,2.63
2018-06-25T22:19:08.106Z,2.73
2018-06-25T22:24:11.374Z,2.37
2018-06-25T22:29:14.784Z,1.97
2018-06-25T22:34:18.027Z,2.60
2018-06-25T22:39:21.301Z,2.30
2018-06-25T22:44:25.982Z,2.20
2018-06-25T22:49:29.312Z,2.03
2018-06-25T22:54:32.758Z,2.13
2018-06-25T22:59:35.976Z,2.40
2018-06-25T23:04:39.379Z,2.30
2018-06-25T23:09:42.688Z,2.20
2018-06-25T23:14:46.175Z,1.90
2018-06-25T23:19:49.460Z,1.93
2018-06-25T23:24:52.738Z,2.17
2018-06-25T23:29:56.154Z,1.97
2018-06-25T23:34:59.922Z,2.20
2018-06-25T23:40:03.205Z,2.13
2018-06-25T23:45:06.887Z,2.20
2018-06-25T23:50:10.133Z,2.20
2018-06-25T23:55:13.687Z,1.30
